Aviation Digital Data Service (ADDS)

Output produced by TAFs form (0009 UTC 02 April 2015)
found at http://aviationweather.gov/adds/tafs/
 
KLVS 012324Z 0200/0224 25022G32KT P6SM VCSH SCT100 
     FM020200 23012KT P6SM FEW100 
     FM021600 25018G25KT P6SM FEW090 
     FM021900 24030G42KT P6SM FEW090